sensor_id;sensor_type;location;lat;lon;timestamp;temperature;humidity
72591;SHT31;60625;51.212;5.952;2022-07-23T00:00:13;19.53;70.09
72591;SHT31;60625;51.212;5.952;2022-07-23T00:05:15;19.52;70.03
72591;SHT31;60625;51.212;5.952;2022-07-23T00:10:16;19.40;70.11
72591;SHT31;60625;51.212;5.952;2022-07-23T00:15:16;19.30;70.47
72591;SHT31;60625;51.212;5.952;2022-07-23T00:20:17;19.14;70.54
72591;SHT31;60625;51.212;5.952;2022-07-23T00:25:18;19.07;70.73
72591;SHT31;60625;51.212;5.952;2022-07-23T00:30:20;19.00;70.79
72591;SHT31;60625;51.212;5.952;2022-07-23T00:35:21;18.93;70.96
72591;SHT31;60625;51.212;5.952;2022-07-23T00:40:24;18.84;70.86
72591;SHT31;60625;51.212;5.952;2022-07-23T00:45:27;18.72;71.07
72591;SHT31;60625;51.212;5.952;2022-07-23T00:50:28;18.67;71.24
72591;SHT31;60625;51.212;5.952;2022-07-23T00:55:30;18.68;71.21
72591;SHT31;60625;51.212;5.952;2022-07-23T01:00:30;18.67;71.29
72591;SHT31;60625;51.212;5.952;2022-07-23T01:05:31;18.58;71.32
72591;SHT31;60625;51.212;5.952;2022-07-23T01:10:32;18.47;71.51
72591;SHT31;60625;51.212;5.952;2022-07-23T01:15:33;18.43;71.79
72591;SHT31;60625;51.212;5.952;2022-07-23T01:20:35;18.34;72.00
72591;SHT31;60625;51.212;5.952;2022-07-23T01:25:36;18.25;72.39
72591;SHT31;60625;51.212;5.952;2022-07-23T01:30:39;18.21;72.39
72591;SHT31;60625;51.212;5.952;2022-07-23T01:35:41;18.24;72.25
72591;SHT31;60625;51.212;5.952;2022-07-23T01:40:43;18.17;72.34
72591;SHT31;60625;51.212;5.952;2022-07-23T01:45:44;18.02;72.86
72591;SHT31;60625;51.212;5.952;2022-07-23T01:50:46;17.96;72.98
72591;SHT31;60625;51.212;5.952;2022-07-23T01:56:20;18.01;72.87
72591;SHT31;60625;51.212;5.952;2022-07-23T02:01:21;17.98;72.96
72591;SHT31;60625;51.212;5.952;2022-07-23T02:06:21;17.86;73.08
72591;SHT31;60625;51.212;5.952;2022-07-23T02:11:23;17.76;73.54
72591;SHT31;60625;51.212;5.952;2022-07-23T02:16:24;17.77;73.68
72591;SHT31;60625;51.212;5.952;2022-07-23T02:21:24;17.74;73.64
72591;SHT31;60625;51.212;5.952;2022-07-23T02:26:27;17.68;73.54
72591;SHT31;60625;51.212;5.952;2022-07-23T02:31:28;17.58;73.82
72591;SHT31;60625;51.212;5.952;2022-07-23T02:36:30;17.52;74.07
72591;SHT31;60625;51.212;5.952;2022-07-23T02:41:31;17.51;74.11
72591;SHT31;60625;51.212;5.952;2022-07-23T02:46:31;17.41;74.25
72591;SHT31;60625;51.212;5.952;2022-07-23T02:51:32;17.38;74.43
72591;SHT31;60625;51.212;5.952;2022-07-23T02:56:37;17.33;74.48
72591;SHT31;60625;51.212;5.952;2022-07-23T03:01:37;17.24;74.32
72591;SHT31;60625;51.212;5.952;2022-07-23T03:06:38;17.09;74.71
72591;SHT31;60625;51.212;5.952;2022-07-23T03:11:39;16.98;74.84
72591;SHT31;60625;51.212;5.952;2022-07-23T03:16:39;17.05;74.95
72591;SHT31;60625;51.212;5.952;2022-07-23T03:21:40;17.09;74.75
72591;SHT31;60625;51.212;5.952;2022-07-23T03:26:41;17.00;74.92
72591;SHT31;60625;51.212;5.952;2022-07-23T03:31:41;16.86;75.16
72591;SHT31;60625;51.212;5.952;2022-07-23T03:36:42;16.86;75.36
72591;SHT31;60625;51.212;5.952;2022-07-23T03:41:42;16.89;75.20
72591;SHT31;60625;51.212;5.952;2022-07-23T03:46:44;16.94;75.13
72591;SHT31;60625;51.212;5.952;2022-07-23T03:51:44;16.92;75.03
72591;SHT31;60625;51.212;5.952;2022-07-23T03:56:46;16.86;75.17
72591;SHT31;60625;51.212;5.952;2022-07-23T04:01:47;16.79;75.40
72591;SHT31;60625;51.212;5.952;2022-07-23T04:06:48;16.75;75.50
72591;SHT31;60625;51.212;5.952;2022-07-23T04:11:49;16.69;75.61
72591;SHT31;60625;51.212;5.952;2022-07-23T04:16:50;16.59;75.75
72591;SHT31;60625;51.212;5.952;2022-07-23T04:21:50;16.61;75.82
72591;SHT31;60625;51.212;5.952;2022-07-23T04:26:51;16.63;75.71
72591;SHT31;60625;51.212;5.952;2022-07-23T04:31:53;16.64;75.78
72591;SHT31;60625;51.212;5.952;2022-07-23T04:36:55;16.68;75.68
72591;SHT31;60625;51.212;5.952;2022-07-23T04:41:55;16.70;75.79
72591;SHT31;60625;51.212;5.952;2022-07-23T04:46:56;16.70;75.97
72591;SHT31;60625;51.212;5.952;2022-07-23T04:51:58;16.81;75.85
72591;SHT31;60625;51.212;5.952;2022-07-23T04:56:58;16.99;75.43
72591;SHT31;60625;51.212;5.952;2022-07-23T05:01:58;17.05;75.45
72591;SHT31;60625;51.212;5.952;2022-07-23T05:06:59;17.08;75.64
72591;SHT31;60625;51.212;5.952;2022-07-23T05:12:00;17.13;75.27
72591;SHT31;60625;51.212;5.952;2022-07-23T05:17:01;17.16;75.25
72591;SHT31;60625;51.212;5.952;2022-07-23T05:22:01;17.32;75.04
72591;SHT31;60625;51.212;5.952;2022-07-23T05:27:02;17.39;74.93
72591;SHT31;60625;51.212;5.952;2022-07-23T05:32:03;17.41;75.00
72591;SHT31;60625;51.212;5.952;2022-07-23T05:37:05;17.43;74.90
72591;SHT31;60625;51.212;5.952;2022-07-23T05:42:06;17.48;74.97
72591;SHT31;60625;51.212;5.952;2022-07-23T05:47:08;17.61;74.68
72591;SHT31;60625;51.212;5.952;2022-07-23T05:52:08;17.70;74.54
72591;SHT31;60625;51.212;5.952;2022-07-23T05:57:28;17.80;74.36
72591;SHT31;60625;51.212;5.952;2022-07-23T06:02:29;17.85;74.54
72591;SHT31;60625;51.212;5.952;2022-07-23T06:07:29;17.94;74.19
72591;SHT31;60625;51.212;5.952;2022-07-23T06:12:31;18.11;73.78
72591;SHT31;60625;51.212;5.952;2022-07-23T06:17:32;18.25;73.46
72591;SHT31;60625;51.212;5.952;2022-07-23T06:22:32;18.29;73.39
72591;SHT31;60625;51.212;5.952;2022-07-23T06:27:33;18.30;73.50
72591;SHT31;60625;51.212;5.952;2022-07-23T06:32:33;18.37;73.44
72591;SHT31;60625;51.212;5.952;2022-07-23T06:37:34;18.53;72.93
72591;SHT31;60625;51.212;5.952;2022-07-23T06:42:35;18.61;72.53
72591;SHT31;60625;51.212;5.952;2022-07-23T06:47:39;18.72;72.40
72591;SHT31;60625;51.212;5.952;2022-07-23T06:52:41;18.86;72.07
72591;SHT31;60625;51.212;5.952;2022-07-23T06:57:41;19.04;71.31
72591;SHT31;60625;51.212;5.952;2022-07-23T07:02:42;19.18;71.02
72591;SHT31;60625;51.212;5.952;2022-07-23T07:07:42;19.45;70.65
72591;SHT31;60625;51.212;5.952;2022-07-23T07:12:43;19.74;69.90
72591;SHT31;60625;51.212;5.952;2022-07-23T07:17:43;20.02;69.33
72591;SHT31;60625;51.212;5.952;2022-07-23T07:22:44;20.27;68.76
72591;SHT31;60625;51.212;5.952;2022-07-23T07:27:44;20.44;67.48
72591;SHT31;60625;51.212;5.952;2022-07-23T07:32:45;20.50;66.36
72591;SHT31;60625;51.212;5.952;2022-07-23T07:37:45;20.68;66.14
72591;SHT31;60625;51.212;5.952;2022-07-23T07:42:47;20.88;65.89
72591;SHT31;60625;51.212;5.952;2022-07-23T07:47:50;20.93;64.43
72591;SHT31;60625;51.212;5.952;2022-07-23T07:52:52;21.05;64.90
72591;SHT31;60625;51.212;5.952;2022-07-23T07:57:53;21.27;63.31
72591;SHT31;60625;51.212;5.952;2022-07-23T08:02:54;21.43;62.99
72591;SHT31;60625;51.212;5.952;2022-07-23T08:07:55;21.58;61.92
72591;SHT31;60625;51.212;5.952;2022-07-23T08:12:58;21.65;61.42
72591;SHT31;60625;51.212;5.952;2022-07-23T08:18:00;21.81;60.69
72591;SHT31;60625;51.212;5.952;2022-07-23T08:23:04;21.82;59.31
72591;SHT31;60625;51.212;5.952;2022-07-23T08:28:10;22.02;59.28
72591;SHT31;60625;51.212;5.952;2022-07-23T08:33:13;22.20;58.10
72591;SHT31;60625;51.212;5.952;2022-07-23T08:38:17;22.32;57.67
72591;SHT31;60625;51.212;5.952;2022-07-23T08:43:25;22.42;55.61
72591;SHT31;60625;51.212;5.952;2022-07-23T08:48:33;22.61;56.35
72591;SHT31;60625;51.212;5.952;2022-07-23T08:53:36;22.80;55.71
72591;SHT31;60625;51.212;5.952;2022-07-23T08:58:38;23.00;54.92
72591;SHT31;60625;51.212;5.952;2022-07-23T09:03:39;23.09;54.90
72591;SHT31;60625;51.212;5.952;2022-07-23T09:08:40;23.44;53.96
72591;SHT31;60625;51.212;5.952;2022-07-23T09:13:47;23.90;53.35
72591;SHT31;60625;51.212;5.952;2022-07-23T09:34:23;24.19;51.94
72591;SHT31;60625;51.212;5.952;2022-07-23T09:39:31;24.51;50.76
72591;SHT31;60625;51.212;5.952;2022-07-23T09:44:33;24.94;49.94
72591;SHT31;60625;51.212;5.952;2022-07-23T09:55:05;25.46;48.66
72591;SHT31;60625;51.212;5.952;2022-07-23T10:00:08;25.25;47.99
72591;SHT31;60625;51.212;5.952;2022-07-23T10:05:10;25.32;48.31
72591;SHT31;60625;51.212;5.952;2022-07-23T10:10:30;25.63;47.81
72591;SHT31;60625;51.212;5.952;2022-07-23T10:15:50;25.54;46.83
72591;SHT31;60625;51.212;5.952;2022-07-23T10:20:51;25.68;46.72
72591;SHT31;60625;51.212;5.952;2022-07-23T10:25:59;25.83;46.06
72591;SHT31;60625;51.212;5.952;2022-07-23T10:31:55;26.04;45.60
72591;SHT31;60625;51.212;5.952;2022-07-23T10:42:15;26.51;44.39
72591;SHT31;60625;51.212;5.952;2022-07-23T10:47:21;26.59;44.66
72591;SHT31;60625;51.212;5.952;2022-07-23T10:52:38;26.69;44.46
72591;SHT31;60625;51.212;5.952;2022-07-23T10:57:49;26.61;43.49
72591;SHT31;60625;51.212;5.952;2022-07-23T11:02:51;26.53;43.42
72591;SHT31;60625;51.212;5.952;2022-07-23T11:34:35;26.88;42.96
72591;SHT31;60625;51.212;5.952;2022-07-23T11:39:41;27.15;43.12
72591;SHT31;60625;51.212;5.952;2022-07-23T11:44:46;27.21;42.59
72591;SHT31;60625;51.212;5.952;2022-07-23T11:49:51;27.24;42.28
72591;SHT31;60625;51.212;5.952;2022-07-23T11:55:06;27.33;42.89
72591;SHT31;60625;51.212;5.952;2022-07-23T12:00:11;27.39;43.10
72591;SHT31;60625;51.212;5.952;2022-07-23T12:05:19;27.46;42.69
72591;SHT31;60625;51.212;5.952;2022-07-23T12:10:26;27.53;42.38
72591;SHT31;60625;51.212;5.952;2022-07-23T12:15:31;27.51;42.48
72591;SHT31;60625;51.212;5.952;2022-07-23T12:20:42;27.74;42.07
72591;SHT31;60625;51.212;5.952;2022-07-23T12:25:46;27.78;41.76
72591;SHT31;60625;51.212;5.952;2022-07-23T12:30:50;27.77;40.85
72591;SHT31;60625;51.212;5.952;2022-07-23T12:35:54;27.87;41.28
72591;SHT31;60625;51.212;5.952;2022-07-23T12:40:57;27.95;41.28
72591;SHT31;60625;51.212;5.952;2022-07-23T12:51:15;28.17;40.79
72591;SHT31;60625;51.212;5.952;2022-07-23T12:56:18;28.42;40.90
72591;SHT31;60625;51.212;5.952;2022-07-23T13:01:27;28.40;40.70
72591;SHT31;60625;51.212;5.952;2022-07-23T13:06:34;28.40;40.43
72591;SHT31;60625;51.212;5.952;2022-07-23T13:11:40;28.32;38.94
72591;SHT31;60625;51.212;5.952;2022-07-23T13:16:42;28.27;38.60
72591;SHT31;60625;51.212;5.952;2022-07-23T13:21:44;28.46;38.72
72591;SHT31;60625;51.212;5.952;2022-07-23T13:26:46;28.66;38.15
72591;SHT31;60625;51.212;5.952;2022-07-23T13:31:49;28.70;37.99
72591;SHT31;60625;51.212;5.952;2022-07-23T13:36:50;28.63;38.35
72591;SHT31;60625;51.212;5.952;2022-07-23T13:41:50;28.74;38.50
72591;SHT31;60625;51.212;5.952;2022-07-23T13:46:51;28.89;37.94
72591;SHT31;60625;51.212;5.952;2022-07-23T13:51:51;28.91;37.85
72591;SHT31;60625;51.212;5.952;2022-07-23T13:56:52;28.80;38.21
72591;SHT31;60625;51.212;5.952;2022-07-23T14:01:52;28.80;38.40
72591;SHT31;60625;51.212;5.952;2022-07-23T14:06:54;28.74;38.37
72591;SHT31;60625;51.212;5.952;2022-07-23T14:11:54;28.56;38.92
72591;SHT31;60625;51.212;5.952;2022-07-23T14:16:55;28.35;39.35
72591;SHT31;60625;51.212;5.952;2022-07-23T14:21:56;28.18;39.69
72591;SHT31;60625;51.212;5.952;2022-07-23T14:26:57;28.29;40.38
72591;SHT31;60625;51.212;5.952;2022-07-23T14:32:02;28.21;40.24
72591;SHT31;60625;51.212;5.952;2022-07-23T14:37:03;27.80;41.48
72591;SHT31;60625;51.212;5.952;2022-07-23T14:42:05;27.58;41.58
72591;SHT31;60625;51.212;5.952;2022-07-23T14:47:07;27.50;41.31
72591;SHT31;60625;51.212;5.952;2022-07-23T14:52:08;27.61;41.42
72591;SHT31;60625;51.212;5.952;2022-07-23T14:57:08;27.83;40.60
72591;SHT31;60625;51.212;5.952;2022-07-23T15:02:09;27.93;40.56
72591;SHT31;60625;51.212;5.952;2022-07-23T15:07:10;27.89;40.78
72591;SHT31;60625;51.212;5.952;2022-07-23T15:12:10;28.01;40.55
72591;SHT31;60625;51.212;5.952;2022-07-23T15:17:10;28.25;40.00
72591;SHT31;60625;51.212;5.952;2022-07-23T15:22:11;28.40;39.99
72591;SHT31;60625;51.212;5.952;2022-07-23T15:27:12;28.29;39.81
72591;SHT31;60625;51.212;5.952;2022-07-23T15:32:12;28.13;40.58
72591;SHT31;60625;51.212;5.952;2022-07-23T15:37:13;28.09;40.66
72591;SHT31;60625;51.212;5.952;2022-07-23T15:42:13;28.19;40.60
72591;SHT31;60625;51.212;5.952;2022-07-23T15:47:15;28.08;40.28
72591;SHT31;60625;51.212;5.952;2022-07-23T15:52:17;28.02;40.60
72591;SHT31;60625;51.212;5.952;2022-07-23T15:57:18;28.16;40.69
72591;SHT31;60625;51.212;5.952;2022-07-23T16:02:18;28.29;40.46
72591;SHT31;60625;51.212;5.952;2022-07-23T16:07:19;28.08;40.34
72591;SHT31;60625;51.212;5.952;2022-07-23T16:12:20;28.02;40.63
72591;SHT31;60625;51.212;5.952;2022-07-23T16:17:21;27.98;40.78
72591;SHT31;60625;51.212;5.952;2022-07-23T16:22:21;27.88;40.56
72591;SHT31;60625;51.212;5.952;2022-07-23T16:27:22;27.95;40.76
72591;SHT31;60625;51.212;5.952;2022-07-23T16:32:22;27.89;40.56
72591;SHT31;60625;51.212;5.952;2022-07-23T16:37:23;27.93;40.71
72591;SHT31;60625;51.212;5.952;2022-07-23T16:42:23;27.81;41.63
72591;SHT31;60625;51.212;5.952;2022-07-23T16:47:24;27.79;41.80
72591;SHT31;60625;51.212;5.952;2022-07-23T16:52:25;27.84;41.54
72591;SHT31;60625;51.212;5.952;2022-07-23T16:57:27;27.77;41.97
72591;SHT31;60625;51.212;5.952;2022-07-23T17:02:27;27.67;42.76
72591;SHT31;60625;51.212;5.952;2022-07-23T17:07:28;27.66;41.85
72591;SHT31;60625;51.212;5.952;2022-07-23T17:12:29;27.63;41.89
72591;SHT31;60625;51.212;5.952;2022-07-23T17:17:29;27.60;41.62
72591;SHT31;60625;51.212;5.952;2022-07-23T17:22:30;27.55;41.21
72591;SHT31;60625;51.212;5.952;2022-07-23T17:27:30;27.58;40.97
72591;SHT31;60625;51.212;5.952;2022-07-23T17:32:31;27.54;41.57
72591;SHT31;60625;51.212;5.952;2022-07-23T17:37:31;27.44;41.65
72591;SHT31;60625;51.212;5.952;2022-07-23T17:42:34;27.36;42.78
72591;SHT31;60625;51.212;5.952;2022-07-23T17:47:34;27.26;41.28
72591;SHT31;60625;51.212;5.952;2022-07-23T17:52:49;27.17;42.35
72591;SHT31;60625;51.212;5.952;2022-07-23T17:57:53;27.02;44.31
72591;SHT31;60625;51.212;5.952;2022-07-23T18:02:55;26.89;45.44
72591;SHT31;60625;51.212;5.952;2022-07-23T18:07:56;26.78;45.21
72591;SHT31;60625;51.212;5.952;2022-07-23T18:12:57;26.68;45.65
72591;SHT31;60625;51.212;5.952;2022-07-23T18:17:58;26.52;47.49
72591;SHT31;60625;51.212;5.952;2022-07-23T18:22:59;26.31;47.08
72591;SHT31;60625;51.212;5.952;2022-07-23T18:28:01;26.14;49.00
72591;SHT31;60625;51.212;5.952;2022-07-23T18:33:02;26.00;47.99
72591;SHT31;60625;51.212;5.952;2022-07-23T18:38:03;25.84;49.71
72591;SHT31;60625;51.212;5.952;2022-07-23T18:43:03;25.64;49.20
72591;SHT31;60625;51.212;5.952;2022-07-23T18:48:04;25.45;50.04
72591;SHT31;60625;51.212;5.952;2022-07-23T18:53:04;25.32;50.30
72591;SHT31;60625;51.212;5.952;2022-07-23T18:58:05;25.22;50.58
72591;SHT31;60625;51.212;5.952;2022-07-23T19:03:06;25.07;50.19
72591;SHT31;60625;51.212;5.952;2022-07-23T19:08:07;24.90;51.83
72591;SHT31;60625;51.212;5.952;2022-07-23T19:13:07;24.75;51.46
72591;SHT31;60625;51.212;5.952;2022-07-23T19:18:08;24.57;51.72
72591;SHT31;60625;51.212;5.952;2022-07-23T19:23:09;24.38;52.25
72591;SHT31;60625;51.212;5.952;2022-07-23T19:28:10;24.24;52.17
72591;SHT31;60625;51.212;5.952;2022-07-23T19:33:12;24.11;52.74
72591;SHT31;60625;51.212;5.952;2022-07-23T19:38:13;23.96;52.81
72591;SHT31;60625;51.212;5.952;2022-07-23T19:43:15;23.82;53.10
72591;SHT31;60625;51.212;5.952;2022-07-23T19:48:15;23.75;53.76
72591;SHT31;60625;51.212;5.952;2022-07-23T19:53:16;23.55;54.07
72591;SHT31;60625;51.212;5.952;2022-07-23T19:58:16;23.36;54.50
72591;SHT31;60625;51.212;5.952;2022-07-23T20:03:17;23.22;55.24
72591;SHT31;60625;51.212;5.952;2022-07-23T20:08:18;23.16;55.80
72591;SHT31;60625;51.212;5.952;2022-07-23T20:13:19;23.02;57.01
72591;SHT31;60625;51.212;5.952;2022-07-23T20:18:20;22.88;57.65
72591;SHT31;60625;51.212;5.952;2022-07-23T20:23:20;22.74;58.22
72591;SHT31;60625;51.212;5.952;2022-07-23T20:28:20;22.62;58.91
72591;SHT31;60625;51.212;5.952;2022-07-23T20:33:22;22.45;59.54
72591;SHT31;60625;51.212;5.952;2022-07-23T20:38:23;22.32;60.28
72591;SHT31;60625;51.212;5.952;2022-07-23T20:43:25;22.27;60.31
72591;SHT31;60625;51.212;5.952;2022-07-23T20:48:26;22.25;60.28
72591;SHT31;60625;51.212;5.952;2022-07-23T20:53:26;22.10;60.90
72591;SHT31;60625;51.212;5.952;2022-07-23T20:58:27;21.89;61.72
72591;SHT31;60625;51.212;5.952;2022-07-23T21:03:27;21.76;62.47
72591;SHT31;60625;51.212;5.952;2022-07-23T21:08:28;21.71;62.42
72591;SHT31;60625;51.212;5.952;2022-07-23T21:13:28;21.71;62.28
72591;SHT31;60625;51.212;5.952;2022-07-23T21:18:29;21.57;62.54
72591;SHT31;60625;51.212;5.952;2022-07-23T21:23:30;21.39;63.05
72591;SHT31;60625;51.212;5.952;2022-07-23T21:28:31;21.26;64.08
72591;SHT31;60625;51.212;5.952;2022-07-23T21:33:31;21.17;64.41
72591;SHT31;60625;51.212;5.952;2022-07-23T21:38:33;21.06;64.59
72591;SHT31;60625;51.212;5.952;2022-07-23T21:43:33;21.01;64.22
72591;SHT31;60625;51.212;5.952;2022-07-23T21:48:34;21.05;64.06
72591;SHT31;60625;51.212;5.952;2022-07-23T21:53:34;21.13;63.92
72591;SHT31;60625;51.212;5.952;2022-07-23T21:58:34;21.18;63.94
72591;SHT31;60625;51.212;5.952;2022-07-23T22:03:35;21.10;64.35
72591;SHT31;60625;51.212;5.952;2022-07-23T22:08:36;21.03;64.43
72591;SHT31;60625;51.212;5.952;2022-07-23T22:13:36;20.97;64.92
72591;SHT31;60625;51.212;5.952;2022-07-23T22:18:37;20.91;65.36
72591;SHT31;60625;51.212;5.952;2022-07-23T22:23:37;20.89;65.42
72591;SHT31;60625;51.212;5.952;2022-07-23T22:28:38;20.71;65.90
72591;SHT31;60625;51.212;5.952;2022-07-23T22:33:38;20.55;66.66
72591;SHT31;60625;51.212;5.952;2022-07-23T22:38:39;20.52;66.65
72591;SHT31;60625;51.212;5.952;2022-07-23T22:43:39;20.53;66.07
72591;SHT31;60625;51.212;5.952;2022-07-23T22:48:40;20.59;65.74
72591;SHT31;60625;51.212;5.952;2022-07-23T22:53:41;20.64;65.64
72591;SHT31;60625;51.212;5.952;2022-07-23T22:58:41;20.66;65.48
72591;SHT31;60625;51.212;5.952;2022-07-23T23:03:42;20.67;65.10
72591;SHT31;60625;51.212;5.952;2022-07-23T23:08:42;20.55;65.18
72591;SHT31;60625;51.212;5.952;2022-07-23T23:13:43;20.55;65.05
72591;SHT31;60625;51.212;5.952;2022-07-23T23:18:43;20.54;64.57
72591;SHT31;60625;51.212;5.952;2022-07-23T23:23:43;20.53;63.88
72591;SHT31;60625;51.212;5.952;2022-07-23T23:28:46;20.55;63.60
72591;SHT31;60625;51.212;5.952;2022-07-23T23:33:46;20.56;63.26
72591;SHT31;60625;51.212;5.952;2022-07-23T23:38:47;20.54;63.34
72591;SHT31;60625;51.212;5.952;2022-07-23T23:43:48;20.51;63.40
72591;SHT31;60625;51.212;5.952;2022-07-23T23:48:49;20.49;63.77
72591;SHT31;60625;51.212;5.952;2022-07-23T23:53:49;20.53;63.77
72591;SHT31;60625;51.212;5.952;2022-07-23T23:58:49;20.65;63.17
